sensor_id;sensor_type;location;lat;lon;timestamp;pressure;altitude;pressure_sealevel;temperature;humidity
17764;BME280;22245;52.832;13.816;2024-03-23T00:56:25;100550.81;;;8.25;100.00
17764;BME280;22245;52.832;13.816;2024-03-23T00:59:46;100549.84;;;8.26;100.00
17764;BME280;22245;52.832;13.816;2024-03-23T01:03:06;100556.47;;;8.09;100.00
17764;BME280;22245;52.832;13.816;2024-03-23T01:06:26;100556.59;;;8.19;100.00
17764;BME280;22245;52.832;13.816;2024-03-23T01:09:46;100557.47;;;8.20;100.00
17764;BME280;22245;52.832;13.816;2024-03-23T01:13:08;100551.44;;;8.18;100.00
17764;BME280;22245;52.832;13.816;2024-03-23T01:16:29;100548.91;;;8.16;100.00
17764;BME280;22245;52.832;13.816;2024-03-23T01:19:49;100538.41;;;8.15;100.00
17764;BME280;22245;52.832;13.816;2024-03-23T01:23:10;100540.59;;;8.21;100.00
17764;BME280;22245;52.832;13.816;2024-03-23T01:26:30;100535.88;;;8.24;100.00
17764;BME280;22245;52.832;13.816;2024-03-23T01:29:52;100526.47;;;8.09;100.00
17764;BME280;22245;52.832;13.816;2024-03-23T01:33:13;100533.22;;;8.13;100.00
17764;BME280;22245;52.832;13.816;2024-03-23T01:36:34;100532.34;;;8.13;100.00
17764;BME280;22245;52.832;13.816;2024-03-23T01:39:54;100521.75;;;8.13;100.00
17764;BME280;22245;52.832;13.816;2024-03-23T01:43:14;100522.38;;;8.16;100.00
17764;BME280;22245;52.832;13.816;2024-03-23T01:46:36;100514.91;;;8.10;100.00
17764;BME280;22245;52.832;13.816;2024-03-23T01:49:57;100510.94;;;8.16;100.00
17764;BME280;22245;52.832;13.816;2024-03-23T01:53:18;100498.50;;;8.16;100.00
17764;BME280;22245;52.832;13.816;2024-03-23T01:56:40;100502.59;;;8.20;100.00
17764;BME280;22245;52.832;13.816;2024-03-23T02:00:01;100488.34;;;8.21;100.00
17764;BME280;22245;52.832;13.816;2024-03-23T02:03:32;100482.81;;;8.24;100.00
17764;BME280;22245;52.832;13.816;2024-03-23T02:06:53;100475.81;;;8.23;100.00
17764;BME280;22245;52.832;13.816;2024-03-23T02:10:13;100477.50;;;8.24;100.00
17764;BME280;22245;52.832;13.816;2024-03-23T02:13:34;100471.38;;;8.24;100.00
17764;BME280;22245;52.832;13.816;2024-03-23T02:16:54;100464.22;;;8.24;100.00
17764;BME280;22245;52.832;13.816;2024-03-23T02:20:16;100461.81;;;8.21;100.00
17764;BME280;22245;52.832;13.816;2024-03-23T02:23:38;100451.34;;;8.20;100.00
17764;BME280;22245;52.832;13.816;2024-03-23T02:26:58;100457.72;;;8.17;100.00
17764;BME280;22245;52.832;13.816;2024-03-23T02:30:18;100448.69;;;8.20;100.00
17764;BME280;22245;52.832;13.816;2024-03-23T02:33:38;100441.97;;;8.16;100.00
17764;BME280;22245;52.832;13.816;2024-03-23T02:36:58;100436.66;;;8.16;100.00
17764;BME280;22245;52.832;13.816;2024-03-23T02:40:20;100433.38;;;8.12;100.00
17764;BME280;22245;52.832;13.816;2024-03-23T02:43:40;100427.00;;;8.15;100.00
17764;BME280;22245;52.832;13.816;2024-03-23T02:47:01;100422.06;;;7.87;100.00
17764;BME280;22245;52.832;13.816;2024-03-23T02:50:21;100427.38;;;7.87;100.00
17764;BME280;22245;52.832;13.816;2024-03-23T02:53:42;100422.22;;;7.86;100.00
17764;BME280;22245;52.832;13.816;2024-03-23T02:57:04;100417.50;;;7.78;100.00
17764;BME280;22245;52.832;13.816;2024-03-23T03:00:25;100428.22;;;7.76;100.00
17764;BME280;22245;52.832;13.816;2024-03-23T03:03:44;100426.41;;;7.77;100.00
17764;BME280;22245;52.832;13.816;2024-03-23T03:07:05;100412.09;;;7.79;100.00
17764;BME280;22245;52.832;13.816;2024-03-23T03:10:26;100410.41;;;7.78;100.00
17764;BME280;22245;52.832;13.816;2024-03-23T03:13:47;100407.84;;;7.88;100.00
17764;BME280;22245;52.832;13.816;2024-03-23T03:17:08;100416.19;;;7.84;100.00
17764;BME280;22245;52.832;13.816;2024-03-23T03:20:27;100414.84;;;7.78;100.00
17764;BME280;22245;52.832;13.816;2024-03-23T03:23:48;100411.47;;;7.76;100.00
17764;BME280;22245;52.832;13.816;2024-03-23T03:27:09;100399.81;;;7.78;100.00
17764;BME280;22245;52.832;13.816;2024-03-23T03:30:31;100392.44;;;7.82;100.00
17764;BME280;22245;52.832;13.816;2024-03-23T03:33:52;100390.63;;;7.82;100.00
17764;BME280;22245;52.832;13.816;2024-03-23T03:37:11;100394.00;;;7.85;100.00
17764;BME280;22245;52.832;13.816;2024-03-23T03:40:32;100385.91;;;7.86;100.00
17764;BME280;22245;52.832;13.816;2024-03-23T03:43:52;100380.63;;;7.86;100.00
17764;BME280;22245;52.832;13.816;2024-03-23T03:47:15;100376.28;;;7.85;100.00
17764;BME280;22245;52.832;13.816;2024-03-23T03:50:36;100374.59;;;7.84;100.00
17764;BME280;22245;52.832;13.816;2024-03-23T03:53:55;100376.53;;;7.82;100.00
17764;BME280;22245;52.832;13.816;2024-03-23T03:57:16;100374.84;;;7.81;100.00
17764;BME280;22245;52.832;13.816;2024-03-23T04:00:36;100368.81;;;7.79;100.00
17764;BME280;22245;52.832;13.816;2024-03-23T04:03:57;100370.75;;;7.77;100.00
17764;BME280;22245;52.832;13.816;2024-03-23T04:07:17;100367.25;;;7.76;100.00
17764;BME280;22245;52.832;13.816;2024-03-23T04:10:39;100354.13;;;7.75;100.00
17764;BME280;22245;52.832;13.816;2024-03-23T04:14:00;100357.75;;;7.74;100.00
17764;BME280;22245;52.832;13.816;2024-03-23T04:17:21;100355.34;;;7.71;100.00
17764;BME280;22245;52.832;13.816;2024-03-23T04:20:42;100349.19;;;7.70;100.00
17764;BME280;22245;52.832;13.816;2024-03-23T04:24:02;100344.72;;;7.71;100.00
17764;BME280;22245;52.832;13.816;2024-03-23T04:27:23;100337.75;;;7.70;100.00
17764;BME280;22245;52.832;13.816;2024-03-23T04:30:44;100341.22;;;7.70;100.00
17764;BME280;22245;52.832;13.816;2024-03-23T04:34:04;100330.63;;;7.70;100.00
17764;BME280;22245;52.832;13.816;2024-03-23T04:37:26;100335.09;;;7.70;100.00
17764;BME280;22245;52.832;13.816;2024-03-23T04:40:54;100336.06;;;7.68;100.00
17764;BME280;22245;52.832;13.816;2024-03-23T04:44:14;100335.22;;;7.68;100.00
17764;BME280;22245;52.832;13.816;2024-03-23T04:47:35;100326.44;;;7.67;100.00
17764;BME280;22245;52.832;13.816;2024-03-23T04:50:57;100313.19;;;7.67;100.00
17764;BME280;22245;52.832;13.816;2024-03-23T04:54:19;100308.84;;;7.66;100.00
17764;BME280;22245;52.832;13.816;2024-03-23T04:57:42;100301.84;;;7.65;100.00
17764;BME280;22245;52.832;13.816;2024-03-23T05:01:03;100306.44;;;7.63;100.00
17764;BME280;22245;52.832;13.816;2024-03-23T05:04:23;100312.94;;;7.59;100.00
17764;BME280;22245;52.832;13.816;2024-03-23T05:07:43;100306.69;;;7.60;100.00
17764;BME280;22245;52.832;13.816;2024-03-23T05:11:04;100315.72;;;7.58;100.00
17764;BME280;22245;52.832;13.816;2024-03-23T05:14:26;100313.06;;;7.58;100.00
17764;BME280;22245;52.832;13.816;2024-03-23T05:17:47;100303.53;;;7.55;100.00
17764;BME280;22245;52.832;13.816;2024-03-23T05:21:07;100299.19;;;7.54;100.00
17764;BME280;22245;52.832;13.816;2024-03-23T05:24:28;100297.75;;;7.50;100.00
17764;BME280;22245;52.832;13.816;2024-03-23T05:27:50;100299.44;;;7.51;100.00
17764;BME280;22245;52.832;13.816;2024-03-23T05:31:10;100288.03;;;7.50;100.00
17764;BME280;22245;52.832;13.816;2024-03-23T05:34:29;100285.38;;;7.50;100.00
17764;BME280;22245;52.832;13.816;2024-03-23T05:37:50;100288.38;;;7.46;100.00
17764;BME280;22245;52.832;13.816;2024-03-23T05:41:10;100297.03;;;7.48;100.00
17764;BME280;22245;52.832;13.816;2024-03-23T05:44:33;100288.25;;;7.47;100.00
17764;BME280;22245;52.832;13.816;2024-03-23T05:47:52;100292.72;;;7.47;100.00
17764;BME280;22245;52.832;13.816;2024-03-23T05:51:13;100288.38;;;7.46;100.00
17764;BME280;22245;52.832;13.816;2024-03-23T05:54:32;100278.75;;;7.45;100.00
17764;BME280;22245;52.832;13.816;2024-03-23T05:57:53;100269.00;;;7.45;100.00
17764;BME280;22245;52.832;13.816;2024-03-23T06:01:15;100268.13;;;7.45;100.00
17764;BME280;22245;52.832;13.816;2024-03-23T06:04:35;100257.53;;;7.45;100.00
17764;BME280;22245;52.832;13.816;2024-03-23T06:07:57;100257.78;;;7.42;100.00
17764;BME280;22245;52.832;13.816;2024-03-23T06:11:17;100252.50;;;7.42;100.00
17764;BME280;22245;52.832;13.816;2024-03-23T06:14:38;100256.72;;;7.44;100.00
17764;BME280;22245;52.832;13.816;2024-03-23T06:17:59;100259.38;;;7.44;100.00
17764;BME280;22245;52.832;13.816;2024-03-23T06:21:19;100249.75;;;7.43;100.00
17764;BME280;22245;52.832;13.816;2024-03-23T06:24:39;100257.53;;;7.45;100.00
17764;BME280;22245;52.832;13.816;2024-03-23T06:28:00;100238.03;;;7.46;100.00
17764;BME280;22245;52.832;13.816;2024-03-23T06:31:20;100235.38;;;7.46;100.00
17764;BME280;22245;52.832;13.816;2024-03-23T06:34:42;100230.09;;;7.46;100.00
17764;BME280;22245;52.832;13.816;2024-03-23T06:38:03;100223.00;;;7.46;100.00
17764;BME280;22245;52.832;13.816;2024-03-23T06:41:24;100223.00;;;7.46;100.00
17764;BME280;22245;52.832;13.816;2024-03-23T06:44:44;100234.41;;;7.47;100.00
17764;BME280;22245;52.832;13.816;2024-03-23T06:48:04;100232.47;;;7.49;100.00
17764;BME280;22245;52.832;13.816;2024-03-23T06:51:28;100230.81;;;7.48;100.00
17764;BME280;22245;52.832;13.816;2024-03-23T06:54:49;100220.91;;;7.50;100.00
17764;BME280;22245;52.832;13.816;2024-03-23T06:58:09;100205.72;;;7.52;100.00
17764;BME280;22245;52.832;13.816;2024-03-23T07:01:29;100212.72;;;7.53;100.00
17764;BME280;22245;52.832;13.816;2024-03-23T07:04:50;100215.16;;;7.45;100.00
17764;BME280;22245;52.832;13.816;2024-03-23T07:08:12;100214.97;;;7.25;99.52
17764;BME280;22245;52.832;13.816;2024-03-23T07:11:38;100210.63;;;7.24;97.76
17764;BME280;22245;52.832;13.816;2024-03-23T07:14:58;100207.97;;;7.24;97.44
17764;BME280;22245;52.832;13.816;2024-03-23T07:18:19;100207.13;;;7.23;97.09
17764;BME280;22245;52.832;13.816;2024-03-23T07:21:38;100204.38;;;7.25;97.00
17764;BME280;22245;52.832;13.816;2024-03-23T07:25:00;100196.19;;;7.28;97.70
17764;BME280;22245;52.832;13.816;2024-03-23T07:28:20;100192.56;;;7.29;98.03
17764;BME280;22245;52.832;13.816;2024-03-23T07:31:41;100190.63;;;7.31;97.76
17764;BME280;22245;52.832;13.816;2024-03-23T07:35:02;100194.09;;;7.32;97.98
17764;BME280;22245;52.832;13.816;2024-03-23T07:38:23;100180.75;;;7.33;98.13
17764;BME280;22245;52.832;13.816;2024-03-23T07:41:45;100190.47;;;7.33;97.99
17764;BME280;22245;52.832;13.816;2024-03-23T07:45:06;100187.03;;;7.21;98.83
17764;BME280;22245;52.832;13.816;2024-03-23T07:48:28;100177.78;;;7.15;98.35
17764;BME280;22245;52.832;13.816;2024-03-23T07:51:49;100182.56;;;7.21;97.50
17764;BME280;22245;52.832;13.816;2024-03-23T07:55:09;100182.72;;;7.20;97.05
17764;BME280;22245;52.832;13.816;2024-03-23T07:58:31;100183.78;;;7.17;95.52
17764;BME280;22245;52.832;13.816;2024-03-23T08:01:51;100182.72;;;7.20;95.43
17764;BME280;22245;52.832;13.816;2024-03-23T08:05:12;100179.91;;;7.21;96.61
17764;BME280;22245;52.832;13.816;2024-03-23T08:08:31;100174.38;;;7.24;96.72
17764;BME280;22245;52.832;13.816;2024-03-23T08:11:52;100173.56;;;7.24;94.54
17764;BME280;22245;52.832;13.816;2024-03-23T08:15:13;100161.13;;;7.24;94.80
17764;BME280;22245;52.832;13.816;2024-03-23T08:18:34;100160.88;;;7.28;93.85
17764;BME280;22245;52.832;13.816;2024-03-23T08:21:55;100162.25;;;7.22;93.86
17764;BME280;22245;52.832;13.816;2024-03-23T08:25:15;100163.19;;;7.21;91.72
17764;BME280;22245;52.832;13.816;2024-03-23T08:28:36;100156.94;;;7.10;91.79
17764;BME280;22245;52.832;13.816;2024-03-23T08:31:58;100149.75;;;7.01;93.16
17764;BME280;22245;52.832;13.816;2024-03-23T08:35:20;100146.13;;;7.02;94.46
17764;BME280;22245;52.832;13.816;2024-03-23T08:38:40;100151.91;;;6.96;95.42
17764;BME280;22245;52.832;13.816;2024-03-23T08:42:00;100145.44;;;6.89;92.56
17764;BME280;22245;52.832;13.816;2024-03-23T08:45:21;100146.16;;;6.91;91.89
17764;BME280;22245;52.832;13.816;2024-03-23T08:48:44;100144.97;;;6.84;92.25
17764;BME280;22245;52.832;13.816;2024-03-23T08:52:05;100140.63;;;6.71;92.91
17764;BME280;22245;52.832;13.816;2024-03-23T08:55:26;100141.34;;;6.73;92.37
17764;BME280;22245;52.832;13.816;2024-03-23T08:58:45;100136.41;;;6.80;92.86
17764;BME280;22245;52.832;13.816;2024-03-23T09:02:06;100127.16;;;6.63;94.66
17764;BME280;22245;52.832;13.816;2024-03-23T09:05:27;100132.69;;;6.48;94.36
17764;BME280;22245;52.832;13.816;2024-03-23T09:08:48;100130.41;;;6.44;94.29
17764;BME280;22245;52.832;13.816;2024-03-23T09:12:08;100125.94;;;6.33;94.86
17764;BME280;22245;52.832;13.816;2024-03-23T09:15:29;100125.22;;;6.31;96.22
17764;BME280;22245;52.832;13.816;2024-03-23T09:18:48;100135.31;;;6.26;97.66
17764;BME280;22245;52.832;13.816;2024-03-23T09:22:10;100144.44;;;6.21;96.56
17764;BME280;22245;52.832;13.816;2024-03-23T09:25:30;100145.16;;;6.23;98.65
17764;BME280;22245;52.832;13.816;2024-03-23T09:28:51;100139.97;;;6.11;97.50
17764;BME280;22245;52.832;13.816;2024-03-23T09:32:12;100140.94;;;6.21;97.09
17764;BME280;22245;52.832;13.816;2024-03-23T09:35:32;100135.16;;;6.16;96.58
17764;BME280;22245;52.832;13.816;2024-03-23T09:38:54;100145.88;;;6.14;95.93
17764;BME280;22245;52.832;13.816;2024-03-23T09:42:14;100147.56;;;6.15;94.84
17764;BME280;22245;52.832;13.816;2024-03-23T09:45:37;100139.47;;;6.05;94.55
17764;BME280;22245;52.832;13.816;2024-03-23T09:48:58;100148.25;;;6.06;93.54
17764;BME280;22245;52.832;13.816;2024-03-23T09:52:19;100145.72;;;6.04;95.07
17764;BME280;22245;52.832;13.816;2024-03-23T09:55:42;100147.22;;;5.96;91.94
17764;BME280;22245;52.832;13.816;2024-03-23T09:59:02;100136.88;;;5.92;89.34
17764;BME280;22245;52.832;13.816;2024-03-23T10:02:23;100145.91;;;5.90;90.63
17764;BME280;22245;52.832;13.816;2024-03-23T10:05:44;100143.03;;;5.93;91.01
17764;BME280;22245;52.832;13.816;2024-03-23T10:09:16;100136.88;;;5.92;91.52
17764;BME280;22245;52.832;13.816;2024-03-23T10:12:44;100135.91;;;5.82;89.14
17764;BME280;22245;52.832;13.816;2024-03-23T10:16:03;100145.72;;;5.69;90.43
17764;BME280;22245;52.832;13.816;2024-03-23T10:19:30;100151.44;;;5.62;90.57
17764;BME280;22245;52.832;13.816;2024-03-23T10:22:51;100152.28;;;5.63;91.75
17764;BME280;22245;52.832;13.816;2024-03-23T10:26:17;100171.38;;;5.67;92.53
17764;BME280;22245;52.832;13.816;2024-03-23T10:29:38;100168.69;;;5.55;93.33
17764;BME280;22245;52.832;13.816;2024-03-23T10:33:07;100174.66;;;5.46;88.91
17764;BME280;22245;52.832;13.816;2024-03-23T10:36:27;100176.66;;;5.42;89.79
17764;BME280;22245;52.832;13.816;2024-03-23T10:39:49;100185.09;;;5.47;90.52
17764;BME280;22245;52.832;13.816;2024-03-23T10:43:09;100187.19;;;5.55;92.52
17764;BME280;22245;52.832;13.816;2024-03-23T10:46:32;100176.16;;;5.61;91.17
17764;BME280;22245;52.832;13.816;2024-03-23T10:49:52;100176.84;;;5.76;92.36
17764;BME280;22245;52.832;13.816;2024-03-23T10:53:14;100171.47;;;5.89;95.31
17764;BME280;22245;52.832;13.816;2024-03-23T10:56:38;100170.91;;;5.97;97.77
17764;BME280;22245;52.832;13.816;2024-03-23T11:00:02;100173.22;;;6.02;97.50
17764;BME280;22245;52.832;13.816;2024-03-23T11:03:35;100181.16;;;6.02;98.29
17764;BME280;22245;52.832;13.816;2024-03-23T11:06:56;100178.78;;;6.10;98.15
17764;BME280;22245;52.832;13.816;2024-03-23T11:10:25;100180.34;;;6.13;98.05
17764;BME280;22245;52.832;13.816;2024-03-23T11:13:48;100168.00;;;6.25;97.63
17764;BME280;22245;52.832;13.816;2024-03-23T11:17:08;100159.72;;;6.29;97.50
17764;BME280;22245;52.832;13.816;2024-03-23T11:20:32;100165.59;;;6.33;96.80
17764;BME280;22245;52.832;13.816;2024-03-23T11:23:53;100175.84;;;6.37;96.90
17764;BME280;22245;52.832;13.816;2024-03-23T11:27:15;100188.59;;;6.32;96.24
17764;BME280;22245;52.832;13.816;2024-03-23T11:30:36;100202.63;;;6.33;95.66
17764;BME280;22245;52.832;13.816;2024-03-23T11:34:03;100204.94;;;6.26;96.21
17764;BME280;22245;52.832;13.816;2024-03-23T11:37:25;100199.50;;;6.28;96.44
17764;BME280;22245;52.832;13.816;2024-03-23T11:40:47;100187.25;;;6.38;96.33
17764;BME280;22245;52.832;13.816;2024-03-23T11:44:14;100178.00;;;6.44;97.05
17764;BME280;22245;52.832;13.816;2024-03-23T11:47:35;100180.31;;;6.48;98.21
17764;BME280;22245;52.832;13.816;2024-03-23T11:50:56;100177.16;;;6.43;97.27
17764;BME280;22245;52.832;13.816;2024-03-23T11:54:21;100176.56;;;6.51;95.93
17764;BME280;22245;52.832;13.816;2024-03-23T11:57:42;100189.47;;;6.56;95.85
17764;BME280;22245;52.832;13.816;2024-03-23T12:01:04;100191.38;;;6.65;95.76
17764;BME280;22245;52.832;13.816;2024-03-23T12:04:27;100189.47;;;6.67;95.31
17764;BME280;22245;52.832;13.816;2024-03-23T12:07:48;100190.19;;;6.69;95.51
17764;BME280;22245;52.832;13.816;2024-03-23T12:11:12;100188.00;;;6.74;95.69
17764;BME280;22245;52.832;13.816;2024-03-23T12:14:33;100192.81;;;6.69;93.58
17764;BME280;22245;52.832;13.816;2024-03-23T12:18:06;100200.66;;;6.71;93.88
17764;BME280;22245;52.832;13.816;2024-03-23T12:21:26;100195.38;;;6.71;93.36
17764;BME280;22245;52.832;13.816;2024-03-23T12:24:47;100195.09;;;6.62;94.33
17764;BME280;22245;52.832;13.816;2024-03-23T12:28:08;100202.22;;;6.62;95.03
17764;BME280;22245;52.832;13.816;2024-03-23T12:31:29;100201.97;;;6.65;94.91
17764;BME280;22245;52.832;13.816;2024-03-23T12:34:49;100202.34;;;6.72;94.08
17764;BME280;22245;52.832;13.816;2024-03-23T12:38:09;100197.88;;;6.72;94.64
17764;BME280;22245;52.832;13.816;2024-03-23T12:41:30;100210.91;;;6.87;95.05
17764;BME280;22245;52.832;13.816;2024-03-23T12:44:52;100199.78;;;6.81;95.00
17764;BME280;22245;52.832;13.816;2024-03-23T12:48:11;100197.66;;;6.87;94.49
17764;BME280;22245;52.832;13.816;2024-03-23T12:51:32;100190.19;;;6.92;94.51
17764;BME280;22245;52.832;13.816;2024-03-23T12:54:53;100190.06;;;6.93;94.30
17764;BME280;22245;52.832;13.816;2024-03-23T12:58:15;100185.13;;;7.00;94.51
17764;BME280;22245;52.832;13.816;2024-03-23T13:01:36;100174.03;;;7.06;94.97
17764;BME280;22245;52.832;13.816;2024-03-23T13:04:56;100169.47;;;7.08;95.37
17764;BME280;22245;52.832;13.816;2024-03-23T13:08:17;100169.47;;;7.20;95.46
17764;BME280;22245;52.832;13.816;2024-03-23T13:11:37;100174.25;;;7.26;95.05
17764;BME280;22245;52.832;13.816;2024-03-23T13:14:57;100171.38;;;7.29;95.31
17764;BME280;22245;52.832;13.816;2024-03-23T13:18:19;100179.06;;;7.32;95.23
17764;BME280;22245;52.832;13.816;2024-03-23T13:21:39;100183.25;;;7.35;94.69
17764;BME280;22245;52.832;13.816;2024-03-23T13:24:59;100184.22;;;7.34;95.86
17764;BME280;22245;52.832;13.816;2024-03-23T13:28:21;100178.81;;;7.35;96.18
17764;BME280;22245;52.832;13.816;2024-03-23T13:31:41;100170.56;;;7.50;96.33
17764;BME280;22245;52.832;13.816;2024-03-23T13:35:02;100169.59;;;7.62;95.79
17764;BME280;22245;52.832;13.816;2024-03-23T13:38:25;100177.75;;;7.71;96.24
17764;BME280;22245;52.832;13.816;2024-03-23T13:41:46;100175.09;;;7.71;95.61
17764;BME280;22245;52.832;13.816;2024-03-23T13:45:07;100180.41;;;7.71;95.32
17764;BME280;22245;52.832;13.816;2024-03-23T13:48:27;100187.13;;;7.75;94.66
17764;BME280;22245;52.832;13.816;2024-03-23T13:51:50;100186.63;;;7.81;93.10
17764;BME280;22245;52.832;13.816;2024-03-23T13:55:10;100176.53;;;7.96;93.14
17764;BME280;22245;52.832;13.816;2024-03-23T13:58:35;100178.69;;;8.02;92.51
17764;BME280;22245;52.832;13.816;2024-03-23T14:01:54;100183.28;;;8.00;89.89
17764;BME280;22245;52.832;13.816;2024-03-23T14:05:15;100177.41;;;7.96;88.58
17764;BME280;22245;52.832;13.816;2024-03-23T14:08:36;100171.19;;;8.07;89.97
17764;BME280;22245;52.832;13.816;2024-03-23T14:11:58;100182.38;;;8.11;88.94
17764;BME280;22245;52.832;13.816;2024-03-23T14:15:19;100184.78;;;8.14;87.45
17764;BME280;22245;52.832;13.816;2024-03-23T14:18:39;100189.97;;;8.16;83.51
17764;BME280;22245;52.832;13.816;2024-03-23T14:22:00;100193.09;;;8.09;83.77
17764;BME280;22245;52.832;13.816;2024-03-23T14:25:22;100185.91;;;8.00;84.53
17764;BME280;22245;52.832;13.816;2024-03-23T14:28:46;100192.28;;;8.09;86.00
17764;BME280;22245;52.832;13.816;2024-03-23T14:32:07;100221.78;;;7.83;86.11
17764;BME280;22245;52.832;13.816;2024-03-23T14:35:26;100243.13;;;7.15;87.85
17764;BME280;22245;52.832;13.816;2024-03-23T14:38:47;100239.50;;;6.81;90.48
17764;BME280;22245;52.832;13.816;2024-03-23T14:42:09;100241.31;;;6.70;92.97
17764;BME280;22245;52.832;13.816;2024-03-23T14:45:29;100221.47;;;6.87;93.94
17764;BME280;22245;52.832;13.816;2024-03-23T14:48:50;100218.09;;;6.96;92.50
17764;BME280;22245;52.832;13.816;2024-03-23T14:52:10;100227.25;;;6.92;93.06
17764;BME280;22245;52.832;13.816;2024-03-23T14:55:29;100217.97;;;6.98;93.69
17764;BME280;22245;52.832;13.816;2024-03-23T14:58:53;100224.25;;;7.08;95.34
17764;BME280;22245;52.832;13.816;2024-03-23T15:02:14;100225.81;;;7.22;95.52
17764;BME280;22245;52.832;13.816;2024-03-23T15:05:34;100244.94;;;7.26;93.78
17764;BME280;22245;52.832;13.816;2024-03-23T15:08:55;100234.56;;;7.22;92.87
17764;BME280;22245;52.832;13.816;2024-03-23T15:12:14;100251.78;;;7.17;91.49
17764;BME280;22245;52.832;13.816;2024-03-23T15:15:39;100237.94;;;7.24;92.46
17764;BME280;22245;52.832;13.816;2024-03-23T15:19:01;100245.78;;;7.26;91.89
17764;BME280;22245;52.832;13.816;2024-03-23T15:22:21;100233.25;;;7.17;91.33
17764;BME280;22245;52.832;13.816;2024-03-23T15:25:42;100233.25;;;7.28;90.87
17764;BME280;22245;52.832;13.816;2024-03-23T15:29:02;100231.19;;;7.32;89.99
17764;BME280;22245;52.832;13.816;2024-03-23T15:32:33;100223.84;;;7.35;89.90
17764;BME280;22245;52.832;13.816;2024-03-23T15:35:53;100228.25;;;7.58;88.55
17764;BME280;22245;52.832;13.816;2024-03-23T15:39:14;100218.81;;;8.09;87.75
17764;BME280;22245;52.832;13.816;2024-03-23T15:42:34;100210.41;;;8.46;84.01
17764;BME280;22245;52.832;13.816;2024-03-23T15:45:54;100206.59;;;8.91;82.31
17764;BME280;22245;52.832;13.816;2024-03-23T15:49:16;100198.34;;;9.35;79.45
17764;BME280;22245;52.832;13.816;2024-03-23T15:52:36;100200.75;;;9.58;76.27
17764;BME280;22245;52.832;13.816;2024-03-23T15:55:56;100185.38;;;10.01;76.00
17764;BME280;22245;52.832;13.816;2024-03-23T15:59:17;100194.56;;;10.36;74.55
17764;BME280;22245;52.832;13.816;2024-03-23T16:02:38;100176.34;;;10.51;73.45
17764;BME280;22245;52.832;13.816;2024-03-23T16:05:59;100174.59;;;10.80;72.47
17764;BME280;22245;52.832;13.816;2024-03-23T16:09:20;100172.41;;;10.93;70.81
17764;BME280;22245;52.832;13.816;2024-03-23T16:12:39;100157.59;;;11.09;69.85
17764;BME280;22245;52.832;13.816;2024-03-23T16:16:01;100163.00;;;10.99;69.64
17764;BME280;22245;52.832;13.816;2024-03-23T16:19:24;100152.34;;;10.99;70.09
17764;BME280;22245;52.832;13.816;2024-03-23T16:22:45;100142.75;;;11.06;69.25
17764;BME280;22245;52.832;13.816;2024-03-23T16:26:05;100147.94;;;11.08;68.75
17764;BME280;22245;52.832;13.816;2024-03-23T16:29:26;100138.41;;;11.05;69.16
17764;BME280;22245;52.832;13.816;2024-03-23T16:32:47;100133.13;;;10.95;68.69
17764;BME280;22245;52.832;13.816;2024-03-23T16:36:08;100138.06;;;10.90;68.78
17764;BME280;22245;52.832;13.816;2024-03-23T16:39:30;100144.16;;;10.73;68.93
17764;BME280;22245;52.832;13.816;2024-03-23T16:42:51;100139.94;;;10.52;70.08
17764;BME280;22245;52.832;13.816;2024-03-23T16:46:11;100146.53;;;10.28;70.94
17764;BME280;22245;52.832;13.816;2024-03-23T16:49:33;100152.34;;;9.84;71.83
17764;BME280;22245;52.832;13.816;2024-03-23T16:52:53;100147.31;;;9.61;72.88
17764;BME280;22245;52.832;13.816;2024-03-23T16:56:15;100150.78;;;9.32;74.08
17764;BME280;22245;52.832;13.816;2024-03-23T16:59:36;100137.91;;;9.18;74.99
17764;BME280;22245;52.832;13.816;2024-03-23T17:02:56;100148.81;;;8.74;77.53
17764;BME280;22245;52.832;13.816;2024-03-23T17:06:18;100143.44;;;8.64;77.71
17764;BME280;22245;52.832;13.816;2024-03-23T17:09:46;100137.44;;;8.40;79.02
17764;BME280;22245;52.832;13.816;2024-03-23T17:13:08;100136.41;;;8.32;79.87
17764;BME280;22245;52.832;13.816;2024-03-23T17:16:28;100148.22;;;7.96;81.97
17764;BME280;22245;52.832;13.816;2024-03-23T17:19:49;100148.47;;;7.93;82.39
17764;BME280;22245;52.832;13.816;2024-03-23T17:23:10;100150.56;;;7.90;82.35
17764;BME280;22245;52.832;13.816;2024-03-23T17:26:31;100144.66;;;7.86;83.20
17764;BME280;22245;52.832;13.816;2024-03-23T17:29:53;100160.47;;;7.76;83.35
17764;BME280;22245;52.832;13.816;2024-03-23T17:33:13;100168.28;;;7.57;84.58
17764;BME280;22245;52.832;13.816;2024-03-23T17:36:33;100166.69;;;7.54;84.99
17764;BME280;22245;52.832;13.816;2024-03-23T17:39:55;100171.44;;;7.50;85.21
17764;BME280;22245;52.832;13.816;2024-03-23T17:43:15;100169.16;;;7.46;85.11
17764;BME280;22245;52.832;13.816;2024-03-23T17:46:36;100173.97;;;7.41;86.03
17764;BME280;22245;52.832;13.816;2024-03-23T17:49:56;100165.09;;;7.30;86.50
17764;BME280;22245;52.832;13.816;2024-03-23T17:53:16;100172.44;;;7.27;87.15
17764;BME280;22245;52.832;13.816;2024-03-23T17:56:36;100185.34;;;7.20;87.12
17764;BME280;22245;52.832;13.816;2024-03-23T17:59:57;100178.38;;;7.07;87.86
17764;BME280;22245;52.832;13.816;2024-03-23T18:03:19;100180.78;;;6.99;88.35
17764;BME280;22245;52.832;13.816;2024-03-23T18:06:39;100191.63;;;6.96;88.41
17764;BME280;22245;52.832;13.816;2024-03-23T18:09:59;100211.13;;;6.95;88.88
17764;BME280;22245;52.832;13.816;2024-03-23T18:13:19;100244.78;;;6.81;89.94
17764;BME280;22245;52.832;13.816;2024-03-23T18:16:39;100248.97;;;6.61;91.68
17764;BME280;22245;52.832;13.816;2024-03-23T18:20:02;100265.88;;;6.36;93.79